sensor_id;sensor_type;location;lat;lon;timestamp;pressure;altitude;pressure_sealevel;temperature
66170;BMP280;52971;44.024;20.456;2022-10-18T00:00:31;99448.84;;;6.70
66170;BMP280;52971;44.024;20.456;2022-10-18T00:02:56;99445.94;;;6.72
66170;BMP280;52971;44.024;20.456;2022-10-18T00:05:22;99439.41;;;6.74
66170;BMP280;52971;44.024;20.456;2022-10-18T00:07:47;99442.75;;;6.70
66170;BMP280;52971;44.024;20.456;2022-10-18T00:10:13;99433.75;;;6.82
66170;BMP280;52971;44.024;20.456;2022-10-18T00:12:38;99433.97;;;6.81
66170;BMP280;52971;44.024;20.456;2022-10-18T00:15:05;99429.91;;;6.62
66170;BMP280;52971;44.024;20.456;2022-10-18T00:17:33;99427.84;;;6.64
66170;BMP280;52971;44.024;20.456;2022-10-18T00:19:59;99422.47;;;6.70
66170;BMP280;52971;44.024;20.456;2022-10-18T00:22:24;99428.09;;;6.62
66170;BMP280;52971;44.024;20.456;2022-10-18T00:24:50;99426.31;;;6.79
66170;BMP280;52971;44.024;20.456;2022-10-18T00:27:16;99425.44;;;6.62
66170;BMP280;52971;44.024;20.456;2022-10-18T00:29:41;99419.38;;;6.62
66170;BMP280;52971;44.024;20.456;2022-10-18T00:32:08;99414.28;;;6.43
66170;BMP280;52971;44.024;20.456;2022-10-18T00:34:37;99420.06;;;6.29
66170;BMP280;52971;44.024;20.456;2022-10-18T00:37:03;99419.88;;;6.47
66170;BMP280;52971;44.024;20.456;2022-10-18T00:39:28;99423.00;;;6.44
66170;BMP280;52971;44.024;20.456;2022-10-18T00:41:54;99413.81;;;6.35
66170;BMP280;52971;44.024;20.456;2022-10-18T00:46:46;99409.97;;;6.25
66170;BMP280;52971;44.024;20.456;2022-10-18T00:52:00;99404.06;;;6.47
66170;BMP280;52971;44.024;20.456;2022-10-18T00:54:29;99392.19;;;6.33
66170;BMP280;52971;44.024;20.456;2022-10-18T00:56:55;99392.50;;;6.36
66170;BMP280;52971;44.024;20.456;2022-10-18T00:59:21;99394.81;;;6.33
66170;BMP280;52971;44.024;20.456;2022-10-18T01:01:46;99401.38;;;6.30
66170;BMP280;52971;44.024;20.456;2022-10-18T01:04:17;99395.06;;;6.19
66170;BMP280;52971;44.024;20.456;2022-10-18T01:06:52;99378.69;;;6.29
66170;BMP280;52971;44.024;20.456;2022-10-18T01:12:31;99387.56;;;6.11
66170;BMP280;52971;44.024;20.456;2022-10-18T01:22:43;99378.72;;;6.17
66170;BMP280;52971;44.024;20.456;2022-10-18T01:25:22;99383.03;;;6.23
66170;BMP280;52971;44.024;20.456;2022-10-18T01:27:54;99379.97;;;6.27
66170;BMP280;52971;44.024;20.456;2022-10-18T01:30:35;99378.38;;;6.25
66170;BMP280;52971;44.024;20.456;2022-10-18T01:33:44;99375.13;;;6.23
66170;BMP280;52971;44.024;20.456;2022-10-18T01:36:14;99379.91;;;5.98
66170;BMP280;52971;44.024;20.456;2022-10-18T01:38:43;99374.06;;;5.96
66170;BMP280;52971;44.024;20.456;2022-10-18T01:41:12;99368.19;;;5.94
66170;BMP280;52971;44.024;20.456;2022-10-18T01:43:39;99373.38;;;5.89
66170;BMP280;52971;44.024;20.456;2022-10-18T01:46:05;99371.28;;;5.79
66170;BMP280;52971;44.024;20.456;2022-10-18T01:48:33;99376.47;;;5.86
66170;BMP280;52971;44.024;20.456;2022-10-18T01:50:58;99371.44;;;5.84
66170;BMP280;52971;44.024;20.456;2022-10-18T01:53:28;99365.22;;;5.79
66170;BMP280;52971;44.024;20.456;2022-10-18T01:58:48;99367.91;;;5.67
66170;BMP280;52971;44.024;20.456;2022-10-18T02:01:46;99364.53;;;5.60
66170;BMP280;52971;44.024;20.456;2022-10-18T02:04:21;99362.06;;;5.42
66170;BMP280;52971;44.024;20.456;2022-10-18T02:06:50;99363.09;;;5.41
66170;BMP280;52971;44.024;20.456;2022-10-18T02:09:20;99370.03;;;5.35
66170;BMP280;52971;44.024;20.456;2022-10-18T02:11:48;99360.75;;;5.33
66170;BMP280;52971;44.024;20.456;2022-10-18T02:14:17;99361.56;;;5.33
66170;BMP280;52971;44.024;20.456;2022-10-18T02:16:48;99363.03;;;5.29
66170;BMP280;52971;44.024;20.456;2022-10-18T02:19:30;99361.13;;;5.24
66170;BMP280;52971;44.024;20.456;2022-10-18T02:21:57;99368.28;;;5.29
66170;BMP280;52971;44.024;20.456;2022-10-18T02:24:28;99362.38;;;5.22
66170;BMP280;52971;44.024;20.456;2022-10-18T02:26:55;99365.81;;;5.22
66170;BMP280;52971;44.024;20.456;2022-10-18T02:29:21;99353.91;;;5.32
66170;BMP280;52971;44.024;20.456;2022-10-18T02:31:54;99358.00;;;5.27
66170;BMP280;52971;44.024;20.456;2022-10-18T02:34:28;99358.06;;;5.39
66170;BMP280;52971;44.024;20.456;2022-10-18T02:36:57;99358.25;;;5.26
66170;BMP280;52971;44.024;20.456;2022-10-18T02:39:40;99350.72;;;5.41
66170;BMP280;52971;44.024;20.456;2022-10-18T02:42:08;99353.97;;;5.13
66170;BMP280;52971;44.024;20.456;2022-10-18T02:44:34;99352.63;;;5.34
66170;BMP280;52971;44.024;20.456;2022-10-18T02:47:01;99345.91;;;5.38
66170;BMP280;52971;44.024;20.456;2022-10-18T02:49:27;99345.47;;;5.41
66170;BMP280;52971;44.024;20.456;2022-10-18T02:51:52;99335.81;;;5.35
66170;BMP280;52971;44.024;20.456;2022-10-18T02:54:18;99343.28;;;5.38
66170;BMP280;52971;44.024;20.456;2022-10-18T02:56:43;99344.84;;;5.16
66170;BMP280;52971;44.024;20.456;2022-10-18T02:59:10;99345.19;;;5.31
66170;BMP280;52971;44.024;20.456;2022-10-18T03:01:36;99346.34;;;5.35
66170;BMP280;52971;44.024;20.456;2022-10-18T03:04:02;99343.88;;;5.40
66170;BMP280;52971;44.024;20.456;2022-10-18T03:06:27;99346.94;;;5.37
66170;BMP280;52971;44.024;20.456;2022-10-18T03:08:53;99352.50;;;5.17
66170;BMP280;52971;44.024;20.456;2022-10-18T03:11:19;99350.25;;;5.21
66170;BMP280;52971;44.024;20.456;2022-10-18T03:13:45;99354.44;;;5.10
66170;BMP280;52971;44.024;20.456;2022-10-18T03:16:11;99349.78;;;5.24
66170;BMP280;52971;44.024;20.456;2022-10-18T03:18:36;99354.59;;;5.27
66170;BMP280;52971;44.024;20.456;2022-10-18T03:21:06;99349.22;;;5.22
66170;BMP280;52971;44.024;20.456;2022-10-18T03:23:32;99345.78;;;5.21
66170;BMP280;52971;44.024;20.456;2022-10-18T03:25:57;99347.59;;;5.33
66170;BMP280;52971;44.024;20.456;2022-10-18T03:28:23;99343.50;;;5.25
66170;BMP280;52971;44.024;20.456;2022-10-18T03:30:48;99343.03;;;5.28
66170;BMP280;52971;44.024;20.456;2022-10-18T03:33:14;99351.41;;;5.25
66170;BMP280;52971;44.024;20.456;2022-10-18T03:35:39;99351.84;;;5.22
66170;BMP280;52971;44.024;20.456;2022-10-18T03:38:04;99354.72;;;5.20
66170;BMP280;52971;44.024;20.456;2022-10-18T03:40:30;99351.16;;;5.26
66170;BMP280;52971;44.024;20.456;2022-10-18T03:42:56;99352.28;;;5.19
66170;BMP280;52971;44.024;20.456;2022-10-18T03:45:21;99353.97;;;5.13
66170;BMP280;52971;44.024;20.456;2022-10-18T03:47:47;99363.44;;;5.03
66170;BMP280;52971;44.024;20.456;2022-10-18T03:50:12;99353.38;;;5.00
66170;BMP280;52971;44.024;20.456;2022-10-18T03:52:38;99352.50;;;5.06
66170;BMP280;52971;44.024;20.456;2022-10-18T03:55:03;99341.53;;;5.09
66170;BMP280;52971;44.024;20.456;2022-10-18T03:57:29;99347.59;;;5.09
66170;BMP280;52971;44.024;20.456;2022-10-18T03:59:54;99347.66;;;5.03
66170;BMP280;52971;44.024;20.456;2022-10-18T04:02:20;99356.00;;;5.00
66170;BMP280;52971;44.024;20.456;2022-10-18T04:04:45;99357.97;;;4.92
66170;BMP280;52971;44.024;20.456;2022-10-18T04:07:11;99345.09;;;4.84
66170;BMP280;52971;44.024;20.456;2022-10-18T04:09:36;99345.38;;;4.94
66170;BMP280;52971;44.024;20.456;2022-10-18T04:12:02;99347.44;;;4.92
66170;BMP280;52971;44.024;20.456;2022-10-18T04:14:27;99353.03;;;4.96
66170;BMP280;52971;44.024;20.456;2022-10-18T04:16:52;99347.19;;;4.94
66170;BMP280;52971;44.024;20.456;2022-10-18T04:19:18;99347.59;;;4.79
66170;BMP280;52971;44.024;20.456;2022-10-18T04:21:43;99346.03;;;4.90
66170;BMP280;52971;44.024;20.456;2022-10-18T04:24:10;99351.63;;;4.82
66170;BMP280;52971;44.024;20.456;2022-10-18T04:26:35;99348.66;;;4.60
66170;BMP280;52971;44.024;20.456;2022-10-18T04:29:00;99344.91;;;4.56
66170;BMP280;52971;44.024;20.456;2022-10-18T04:31:26;99346.00;;;4.48
66170;BMP280;52971;44.024;20.456;2022-10-18T04:33:52;99338.53;;;4.63
66170;BMP280;52971;44.024;20.456;2022-10-18T04:36:17;99343.06;;;4.56
66170;BMP280;52971;44.024;20.456;2022-10-18T04:38:42;99342.75;;;4.64
66170;BMP280;52971;44.024;20.456;2022-10-18T04:41:08;99344.75;;;4.51
66170;BMP280;52971;44.024;20.456;2022-10-18T04:43:33;99340.66;;;4.55
66170;BMP280;52971;44.024;20.456;2022-10-18T04:45:59;99338.59;;;4.57
66170;BMP280;52971;44.024;20.456;2022-10-18T04:48:25;99332.47;;;4.63
66170;BMP280;52971;44.024;20.456;2022-10-18T04:50:50;99334.88;;;4.64
66170;BMP280;52971;44.024;20.456;2022-10-18T04:53:17;99334.22;;;4.69
66170;BMP280;52971;44.024;20.456;2022-10-18T04:55:49;99328.38;;;4.67
66170;BMP280;52971;44.024;20.456;2022-10-18T04:58:15;99330.34;;;4.72
66170;BMP280;52971;44.024;20.456;2022-10-18T05:00:41;99328.03;;;4.75
66170;BMP280;52971;44.024;20.456;2022-10-18T05:03:08;99328.66;;;4.47
66170;BMP280;52971;44.024;20.456;2022-10-18T05:05:34;99325.81;;;4.60
66170;BMP280;52971;44.024;20.456;2022-10-18T05:07:59;99324.78;;;4.50
66170;BMP280;52971;44.024;20.456;2022-10-18T05:10:25;99326.78;;;4.66
66170;BMP280;52971;44.024;20.456;2022-10-18T05:12:50;99324.72;;;4.68
66170;BMP280;52971;44.024;20.456;2022-10-18T05:15:16;99325.34;;;4.82
66170;BMP280;52971;44.024;20.456;2022-10-18T05:17:41;99328.31;;;4.85
66170;BMP280;52971;44.024;20.456;2022-10-18T05:20:07;99325.34;;;4.82
66170;BMP280;52971;44.024;20.456;2022-10-18T05:22:32;99319.16;;;4.76
66170;BMP280;52971;44.024;20.456;2022-10-18T05:24:58;99321.25;;;4.97
66170;BMP280;52971;44.024;20.456;2022-10-18T05:27:23;99316.22;;;4.96
66170;BMP280;52971;44.024;20.456;2022-10-18T05:29:49;99310.38;;;4.82
66170;BMP280;52971;44.024;20.456;2022-10-18T05:32:14;99312.88;;;4.89
66170;BMP280;52971;44.024;20.456;2022-10-18T05:34:40;99319.31;;;5.05
66170;BMP280;52971;44.024;20.456;2022-10-18T05:37:05;99313.50;;;5.03
66170;BMP280;52971;44.024;20.456;2022-10-18T05:39:31;99321.81;;;4.88
66170;BMP280;52971;44.024;20.456;2022-10-18T05:41:56;99311.50;;;4.86
66170;BMP280;52971;44.024;20.456;2022-10-18T05:44:22;99319.97;;;4.88
66170;BMP280;52971;44.024;20.456;2022-10-18T05:46:48;99311.44;;;5.05
66170;BMP280;52971;44.024;20.456;2022-10-18T05:49:13;99319.47;;;5.10
66170;BMP280;52971;44.024;20.456;2022-10-18T05:51:39;99318.69;;;5.21
66170;BMP280;52971;44.024;20.456;2022-10-18T05:54:05;99321.88;;;5.23
66170;BMP280;52971;44.024;20.456;2022-10-18T05:56:31;99315.44;;;5.19
66170;BMP280;52971;44.024;20.456;2022-10-18T05:58:56;99319.56;;;5.15
66170;BMP280;52971;44.024;20.456;2022-10-18T06:01:24;99317.28;;;5.18
66170;BMP280;52971;44.024;20.456;2022-10-18T06:03:50;99319.63;;;5.38
66170;BMP280;52971;44.024;20.456;2022-10-18T06:06:15;99326.13;;;5.36
66170;BMP280;52971;44.024;20.456;2022-10-18T06:08:43;99317.78;;;5.50
66170;BMP280;52971;44.024;20.456;2022-10-18T06:11:11;99311.13;;;5.59
66170;BMP280;52971;44.024;20.456;2022-10-18T06:13:49;99318.22;;;5.71
66170;BMP280;52971;44.024;20.456;2022-10-18T06:16:17;99312.25;;;5.87
66170;BMP280;52971;44.024;20.456;2022-10-18T06:18:50;99319.50;;;6.08
66170;BMP280;52971;44.024;20.456;2022-10-18T06:21:17;99320.50;;;6.19
66170;BMP280;52971;44.024;20.456;2022-10-18T06:23:46;99325.78;;;6.31
66170;BMP280;52971;44.024;20.456;2022-10-18T06:26:12;99321.78;;;6.56
66170;BMP280;52971;44.024;20.456;2022-10-18T06:28:37;99313.06;;;6.73
66170;BMP280;52971;44.024;20.456;2022-10-18T06:31:05;99321.38;;;6.81
66170;BMP280;52971;44.024;20.456;2022-10-18T06:33:31;99325.84;;;6.98
66170;BMP280;52971;44.024;20.456;2022-10-18T06:35:59;99327.00;;;7.18
66170;BMP280;52971;44.024;20.456;2022-10-18T06:38:26;99320.19;;;7.39
66170;BMP280;52971;44.024;20.456;2022-10-18T06:40:52;99317.44;;;7.51
66170;BMP280;52971;44.024;20.456;2022-10-18T06:43:18;99320.06;;;7.68
66170;BMP280;52971;44.024;20.456;2022-10-18T06:45:44;99319.06;;;7.74
66170;BMP280;52971;44.024;20.456;2022-10-18T06:48:09;99321.72;;;7.96
66170;BMP280;52971;44.024;20.456;2022-10-18T06:50:35;99314.81;;;8.16
66170;BMP280;52971;44.024;20.456;2022-10-18T06:53:02;99317.44;;;8.38
66170;BMP280;52971;44.024;20.456;2022-10-18T06:55:30;99315.50;;;8.61
66170;BMP280;52971;44.024;20.456;2022-10-18T06:57:56;99310.41;;;8.81
66170;BMP280;52971;44.024;20.456;2022-10-18T07:00:22;99312.66;;;8.99
66170;BMP280;52971;44.024;20.456;2022-10-18T07:02:47;99315.72;;;9.23
66170;BMP280;52971;44.024;20.456;2022-10-18T07:05:13;99309.78;;;9.48
66170;BMP280;52971;44.024;20.456;2022-10-18T07:07:38;99302.44;;;9.65
66170;BMP280;52971;44.024;20.456;2022-10-18T07:10:04;99303.38;;;10.11
66170;BMP280;52971;44.024;20.456;2022-10-18T07:12:31;99306.38;;;10.60
66170;BMP280;52971;44.024;20.456;2022-10-18T07:14:57;99307.66;;;10.93
66170;BMP280;52971;44.024;20.456;2022-10-18T07:17:23;99306.59;;;11.15
66170;BMP280;52971;44.024;20.456;2022-10-18T07:19:48;99310.94;;;11.55
66170;BMP280;52971;44.024;20.456;2022-10-18T07:22:13;99314.63;;;11.69
66170;BMP280;52971;44.024;20.456;2022-10-18T07:24:39;99309.25;;;11.79
66170;BMP280;52971;44.024;20.456;2022-10-18T07:27:04;99315.28;;;11.95
66170;BMP280;52971;44.024;20.456;2022-10-18T07:29:30;99313.38;;;12.05
66170;BMP280;52971;44.024;20.456;2022-10-18T07:31:56;99313.69;;;12.33
66170;BMP280;52971;44.024;20.456;2022-10-18T07:34:21;99319.97;;;12.47
66170;BMP280;52971;44.024;20.456;2022-10-18T07:36:47;99314.84;;;12.56
66170;BMP280;52971;44.024;20.456;2022-10-18T07:39:12;99315.84;;;12.65
66170;BMP280;52971;44.024;20.456;2022-10-18T07:41:38;99315.44;;;13.05
66170;BMP280;52971;44.024;20.456;2022-10-18T07:44:04;99312.84;;;12.71
66170;BMP280;52971;44.024;20.456;2022-10-18T07:46:30;99308.47;;;12.86
66170;BMP280;52971;44.024;20.456;2022-10-18T07:48:55;99297.94;;;12.99
66170;BMP280;52971;44.024;20.456;2022-10-18T07:51:22;99296.28;;;13.03
66170;BMP280;52971;44.024;20.456;2022-10-18T07:53:49;99296.50;;;13.07
66170;BMP280;52971;44.024;20.456;2022-10-18T07:56:16;99293.41;;;13.24
66170;BMP280;52971;44.024;20.456;2022-10-18T07:58:46;99295.44;;;13.32
66170;BMP280;52971;44.024;20.456;2022-10-18T08:01:13;99294.94;;;13.48
66170;BMP280;52971;44.024;20.456;2022-10-18T08:03:39;99287.63;;;13.78
66170;BMP280;52971;44.024;20.456;2022-10-18T08:06:06;99278.47;;;14.03
66170;BMP280;52971;44.024;20.456;2022-10-18T08:08:34;99276.69;;;13.98
66170;BMP280;52971;44.024;20.456;2022-10-18T08:11:02;99281.72;;;14.00
66170;BMP280;52971;44.024;20.456;2022-10-18T08:13:28;99270.19;;;14.50
66170;BMP280;52971;44.024;20.456;2022-10-18T08:16:05;99271.09;;;14.59
66170;BMP280;52971;44.024;20.456;2022-10-18T08:18:31;99269.09;;;14.38
66170;BMP280;52971;44.024;20.456;2022-10-18T08:20:59;99278.13;;;14.55
66170;BMP280;52971;44.024;20.456;2022-10-18T08:23:24;99267.38;;;15.02
66170;BMP280;52971;44.024;20.456;2022-10-18T08:25:50;99274.38;;;14.84
66170;BMP280;52971;44.024;20.456;2022-10-18T08:28:15;99266.38;;;14.97
66170;BMP280;52971;44.024;20.456;2022-10-18T08:30:42;99268.34;;;15.19
66170;BMP280;52971;44.024;20.456;2022-10-18T08:33:08;99261.81;;;15.25
66170;BMP280;52971;44.024;20.456;2022-10-18T08:35:33;99258.78;;;15.41
66170;BMP280;52971;44.024;20.456;2022-10-18T08:37:59;99257.13;;;15.45
66170;BMP280;52971;44.024;20.456;2022-10-18T08:40:26;99254.28;;;15.63
66170;BMP280;52971;44.024;20.456;2022-10-18T08:45:42;99248.47;;;15.61
66170;BMP280;52971;44.024;20.456;2022-10-18T08:48:29;99255.22;;;15.81
66170;BMP280;52971;44.024;20.456;2022-10-18T08:50:57;99249.00;;;15.72
66170;BMP280;52971;44.024;20.456;2022-10-18T08:53:28;99248.97;;;16.17
66170;BMP280;52971;44.024;20.456;2022-10-18T08:56:09;99243.75;;;16.11
66170;BMP280;52971;44.024;20.456;2022-10-18T08:58:41;99241.63;;;16.22
66170;BMP280;52971;44.024;20.456;2022-10-18T09:06:37;99227.13;;;16.23
66170;BMP280;52971;44.024;20.456;2022-10-18T09:09:18;99234.38;;;16.62
66170;BMP280;52971;44.024;20.456;2022-10-18T09:12:10;99225.69;;;16.57
66170;BMP280;52971;44.024;20.456;2022-10-18T09:23:30;99222.31;;;16.90
66170;BMP280;52971;44.024;20.456;2022-10-18T09:25:36;99214.00;;;17.35
66170;BMP280;52971;44.024;20.456;2022-10-18T09:33:53;99218.13;;;18.52
66170;BMP280;52971;44.024;20.456;2022-10-18T09:36:26;99208.03;;;18.11
66170;BMP280;52971;44.024;20.456;2022-10-18T09:38:57;99214.88;;;18.67
66170;BMP280;52971;44.024;20.456;2022-10-18T09:44:04;99209.81;;;18.65
66170;BMP280;52971;44.024;20.456;2022-10-18T09:46:38;99204.00;;;18.84
66170;BMP280;52971;44.024;20.456;2022-10-18T09:49:17;99198.38;;;19.18
66170;BMP280;52971;44.024;20.456;2022-10-18T09:51:44;99198.13;;;19.44
66170;BMP280;52971;44.024;20.456;2022-10-18T09:54:23;99193.25;;;19.25
66170;BMP280;52971;44.024;20.456;2022-10-18T09:57:02;99202.53;;;19.28
66170;BMP280;52971;44.024;20.456;2022-10-18T09:59:41;99202.78;;;19.23
66170;BMP280;52971;44.024;20.456;2022-10-18T10:02:12;99197.53;;;19.59
66170;BMP280;52971;44.024;20.456;2022-10-18T10:04:38;99195.44;;;19.89
66170;BMP280;52971;44.024;20.456;2022-10-18T10:07:08;99188.31;;;20.05
66170;BMP280;52971;44.024;20.456;2022-10-18T10:09:41;99177.31;;;20.23
66170;BMP280;52971;44.024;20.456;2022-10-18T10:12:32;99173.34;;;19.84
66170;BMP280;52971;44.024;20.456;2022-10-18T10:15:21;99165.09;;;19.68
66170;BMP280;52971;44.024;20.456;2022-10-18T10:17:59;99159.06;;;20.32
66170;BMP280;52971;44.024;20.456;2022-10-18T10:20:40;99158.84;;;20.49
66170;BMP280;52971;44.024;20.456;2022-10-18T10:23:12;99156.53;;;20.23
66170;BMP280;52971;44.024;20.456;2022-10-18T10:25:39;99139.56;;;20.23
66170;BMP280;52971;44.024;20.456;2022-10-18T10:28:35;99147.31;;;20.12
66170;BMP280;52971;44.024;20.456;2022-10-18T10:34:00;99136.06;;;21.30
66170;BMP280;52971;44.024;20.456;2022-10-18T10:36:26;99130.19;;;21.12
66170;BMP280;52971;44.024;20.456;2022-10-18T10:39:08;99134.72;;;21.08
66170;BMP280;52971;44.024;20.456;2022-10-18T10:41:35;99126.63;;;21.08
66170;BMP280;52971;44.024;20.456;2022-10-18T10:44:03;99125.59;;;21.28
66170;BMP280;52971;44.024;20.456;2022-10-18T10:46:34;99120.09;;;21.88
66170;BMP280;52971;44.024;20.456;2022-10-18T10:49:00;99116.44;;;22.31
66170;BMP280;52971;44.024;20.456;2022-10-18T10:51:37;99111.22;;;22.80
66170;BMP280;52971;44.024;20.456;2022-10-18T10:54:05;99114.22;;;22.36
66170;BMP280;52971;44.024;20.456;2022-10-18T10:56:54;99103.41;;;21.82
66170;BMP280;52971;44.024;20.456;2022-10-18T10:59:22;99099.50;;;23.63
66170;BMP280;52971;44.024;20.456;2022-10-18T11:02:10;99099.56;;;23.93
66170;BMP280;52971;44.024;20.456;2022-10-18T11:04:36;99093.91;;;24.75
66170;BMP280;52971;44.024;20.456;2022-10-18T11:17:41;99069.38;;;25.53
66170;BMP280;52971;44.024;20.456;2022-10-18T11:22:40;99047.38;;;28.50
66170;BMP280;52971;44.024;20.456;2022-10-18T11:25:12;99045.56;;;27.60
66170;BMP280;52971;44.024;20.456;2022-10-18T11:28:02;99046.81;;;26.42
66170;BMP280;52971;44.024;20.456;2022-10-18T11:30:51;99040.69;;;25.62
66170;BMP280;52971;44.024;20.456;2022-10-18T11:36:19;99032.84;;;27.04
66170;BMP280;52971;44.024;20.456;2022-10-18T11:41:36;99023.81;;;26.19
66170;BMP280;52971;44.024;20.456;2022-10-18T11:44:24;99018.03;;;27.05
66170;BMP280;52971;44.024;20.456;2022-10-18T11:50:41;99000.25;;;27.84
66170;BMP280;52971;44.024;20.456;2022-10-18T11:58:05;98991.59;;;26.81
66170;BMP280;52971;44.024;20.456;2022-10-18T12:00:47;98994.25;;;26.10
66170;BMP280;52971;44.024;20.456;2022-10-18T12:04:17;98983.03;;;26.86
66170;BMP280;52971;44.024;20.456;2022-10-18T12:06:21;98983.41;;;27.02
66170;BMP280;52971;44.024;20.456;2022-10-18T12:08:52;98975.59;;;27.07
66170;BMP280;52971;44.024;20.456;2022-10-18T12:11:29;98976.41;;;26.83
66170;BMP280;52971;44.024;20.456;2022-10-18T12:13:59;98977.50;;;25.07
66170;BMP280;52971;44.024;20.456;2022-10-18T12:16:28;98967.50;;;23.90
66170;BMP280;52971;44.024;20.456;2022-10-18T12:18:58;98969.59;;;24.04
66170;BMP280;52971;44.024;20.456;2022-10-18T12:21:26;98961.94;;;21.90
66170;BMP280;52971;44.024;20.456;2022-10-18T12:24:07;98963.78;;;22.47
66170;BMP280;52971;44.024;20.456;2022-10-18T12:26:35;98956.69;;;21.97
66170;BMP280;52971;44.024;20.456;2022-10-18T12:31:33;98952.47;;;22.00
66170;BMP280;52971;44.024;20.456;2022-10-18T12:34:23;98959.13;;;21.67
66170;BMP280;52971;44.024;20.456;2022-10-18T12:39:39;98944.00;;;20.97
66170;BMP280;52971;44.024;20.456;2022-10-18T12:42:17;98942.38;;;21.78
66170;BMP280;52971;44.024;20.456;2022-10-18T12:44:42;98937.22;;;21.92
66170;BMP280;52971;44.024;20.456;2022-10-18T12:47:23;98940.53;;;22.01
66170;BMP280;52971;44.024;20.456;2022-10-18T12:49:58;98938.22;;;22.41
66170;BMP280;52971;44.024;20.456;2022-10-18T12:52:25;98931.94;;;22.37
66170;BMP280;52971;44.024;20.456;2022-10-18T13:08:37;98906.31;;;22.77
66170;BMP280;52971;44.024;20.456;2022-10-18T13:25:03;98898.53;;;23.24
66170;BMP280;52971;44.024;20.456;2022-10-18T13:27:52;98902.31;;;23.16
66170;BMP280;52971;44.024;20.456;2022-10-18T13:33:13;98892.88;;;22.57
66170;BMP280;52971;44.024;20.456;2022-10-18T13:38:41;98879.84;;;22.40
66170;BMP280;52971;44.024;20.456;2022-10-18T13:41:11;98878.00;;;22.44
66170;BMP280;52971;44.024;20.456;2022-10-18T13:46:19;98866.59;;;21.90
66170;BMP280;52971;44.024;20.456;2022-10-18T13:48:47;98869.06;;;22.67
66170;BMP280;52971;44.024;20.456;2022-10-18T13:56:45;98871.56;;;22.30
66170;BMP280;52971;44.024;20.456;2022-10-18T14:05:21;98866.31;;;21.56
66170;BMP280;52971;44.024;20.456;2022-10-18T14:07:49;98864.22;;;21.30
66170;BMP280;52971;44.024;20.456;2022-10-18T14:10:22;98867.34;;;21.52
66170;BMP280;52971;44.024;20.456;2022-10-18T14:12:52;98857.72;;;21.16
66170;BMP280;52971;44.024;20.456;2022-10-18T14:15:26;98862.00;;;21.17
66170;BMP280;52971;44.024;20.456;2022-10-18T14:18:00;98853.84;;;21.32
66170;BMP280;52971;44.024;20.456;2022-10-18T14:23:16;98853.38;;;21.27
66170;BMP280;52971;44.024;20.456;2022-10-18T14:25:43;98850.63;;;21.08
66170;BMP280;52971;44.024;20.456;2022-10-18T14:33:30;98846.69;;;21.40
66170;BMP280;52971;44.024;20.456;2022-10-18T14:36:03;98847.88;;;21.23
66170;BMP280;52971;44.024;20.456;2022-10-18T14:38:29;98851.63;;;21.54
66170;BMP280;52971;44.024;20.456;2022-10-18T14:41:16;98848.44;;;21.13
66170;BMP280;52971;44.024;20.456;2022-10-18T14:43:42;98846.25;;;21.19
66170;BMP280;52971;44.024;20.456;2022-10-18T14:46:41;98849.50;;;21.09
66170;BMP280;52971;44.024;20.456;2022-10-18T14:48:57;98841.63;;;20.84
66170;BMP280;52971;44.024;20.456;2022-10-18T14:51:24;98844.44;;;20.91
66170;BMP280;52971;44.024;20.456;2022-10-18T14:53:50;98843.00;;;20.78
66170;BMP280;52971;44.024;20.456;2022-10-18T14:56:28;98834.66;;;20.83
66170;BMP280;52971;44.024;20.456;2022-10-18T14:58:55;98829.19;;;20.80
66170;BMP280;52971;44.024;20.456;2022-10-18T15:01:25;98829.78;;;20.73
66170;BMP280;52971;44.024;20.456;2022-10-18T15:04:01;98823.63;;;20.57
66170;BMP280;52971;44.024;20.456;2022-10-18T15:06:28;98831.34;;;20.74
66170;BMP280;52971;44.024;20.456;2022-10-18T15:08:56;98825.16;;;20.74
66170;BMP280;52971;44.024;20.456;2022-10-18T15:11:23;98835.00;;;20.66
66170;BMP280;52971;44.024;20.456;2022-10-18T15:13:54;98835.53;;;20.25
66170;BMP280;52971;44.024;20.456;2022-10-18T15:16:25;98818.31;;;20.14
66170;BMP280;52971;44.024;20.456;2022-10-18T15:21:58;98823.59;;;19.66
66170;BMP280;52971;44.024;20.456;2022-10-18T15:24:30;98827.22;;;19.46
66170;BMP280;52971;44.024;20.456;2022-10-18T15:27:00;98825.59;;;19.05
66170;BMP280;52971;44.024;20.456;2022-10-18T15:29:29;98826.84;;;18.83
66170;BMP280;52971;44.024;20.456;2022-10-18T15:32:04;98833.00;;;18.60
66170;BMP280;52971;44.024;20.456;2022-10-18T15:34:31;98827.53;;;18.23
66170;BMP280;52971;44.024;20.456;2022-10-18T15:36:56;98829.72;;;18.09
66170;BMP280;52971;44.024;20.456;2022-10-18T15:39:24;98827.75;;;17.85
66170;BMP280;52971;44.024;20.456;2022-10-18T15:41:58;98827.41;;;17.45
66170;BMP280;52971;44.024;20.456;2022-10-18T15:44:34;98830.63;;;17.09
66170;BMP280;52971;44.024;20.456;2022-10-18T15:52:41;98833.97;;;16.60
66170;BMP280;52971;44.024;20.456;2022-10-18T15:55:49;98833.50;;;16.58
66170;BMP280;52971;44.024;20.456;2022-10-18T15:58:27;98845.19;;;16.44
66170;BMP280;52971;44.024;20.456;2022-10-18T16:00:58;98846.31;;;16.18
66170;BMP280;52971;44.024;20.456;2022-10-18T16:03:25;98837.50;;;16.00
66170;BMP280;52971;44.024;20.456;2022-10-18T16:05:59;98841.63;;;15.97
66170;BMP280;52971;44.024;20.456;2022-10-18T16:08:27;98841.59;;;15.71
66170;BMP280;52971;44.024;20.456;2022-10-18T16:10:58;98837.97;;;15.59
66170;BMP280;52971;44.024;20.456;2022-10-18T16:13:25;98842.97;;;15.52
66170;BMP280;52971;44.024;20.456;2022-10-18T16:15:50;98841.09;;;15.52
66170;BMP280;52971;44.024;20.456;2022-10-18T16:18:18;98845.97;;;15.33
66170;BMP280;52971;44.024;20.456;2022-10-18T16:20:45;98847.47;;;15.25
66170;BMP280;52971;44.024;20.456;2022-10-18T16:23:22;98850.72;;;15.05
66170;BMP280;52971;44.024;20.456;2022-10-18T16:25:49;98839.97;;;14.88
66170;BMP280;52971;44.024;20.456;2022-10-18T16:28:21;98843.22;;;14.85
66170;BMP280;52971;44.024;20.456;2022-10-18T16:30:54;98842.22;;;14.72
66170;BMP280;52971;44.024;20.456;2022-10-18T16:33:21;98843.41;;;14.57
66170;BMP280;52971;44.024;20.456;2022-10-18T16:35:47;98850.00;;;14.60
66170;BMP280;52971;44.024;20.456;2022-10-18T16:38:20;98850.91;;;14.55